NEWTON-CITY-COUNTY (EWK) CLASS E
     UNICOM 123.00    AWOS 123.875 (316-283-8789)   FBO 316-254-6084
RWY 17-35: 7003' x 100' (CONCRETE)
     RWY 17: MALSR. VASI
     RWY 35: REIL. VASI
RWY 08-26: 3501' x 60' (ASPHALT)
     RWY 08: REIL. PAPI
     RWY 26: REIL. PAPI

 

Available data for KEWK from the past 2 hours
NEWTON, KS
Metar
KEWK 210356Z AUTO 31005KT 10SM CLR 08/M01 A3014 RMK AO2 SLP209 T00781011

03:56 UTC

Wind: 310° 5kt

Visibility: 10 SM

Sky:

Temp: 8 deg C / 46.4 deg F

Dewpoint: -1 deg C / 30.2 deg F

Pressure: 30.14 inHg

 

Enter your text here...